sensor_id;sensor_type;location;lat;lon;timestamp;temperature;humidity
4399;DHT22;2213;49.720;7.296;2023-07-13T00:01:47;17.10;99.90
4399;DHT22;2213;49.720;7.296;2023-07-13T00:04:21;17.10;99.90
4399;DHT22;2213;49.720;7.296;2023-07-13T00:06:53;17.00;99.90
4399;DHT22;2213;49.720;7.296;2023-07-13T00:09:22;17.00;99.90
4399;DHT22;2213;49.720;7.296;2023-07-13T00:11:55;16.90;99.90
4399;DHT22;2213;49.720;7.296;2023-07-13T00:14:27;16.80;99.90
4399;DHT22;2213;49.720;7.296;2023-07-13T00:16:59;16.80;99.90
4399;DHT22;2213;49.720;7.296;2023-07-13T00:19:30;16.80;99.90
4399;DHT22;2213;49.720;7.296;2023-07-13T00:22:04;16.70;99.90
4399;DHT22;2213;49.720;7.296;2023-07-13T00:24:35;16.70;99.90
4399;DHT22;2213;49.720;7.296;2023-07-13T00:27:09;16.60;99.90
4399;DHT22;2213;49.720;7.296;2023-07-13T00:29:39;16.60;99.90
4399;DHT22;2213;49.720;7.296;2023-07-13T00:32:08;16.60;99.90
4399;DHT22;2213;49.720;7.296;2023-07-13T00:34:41;16.60;99.90
4399;DHT22;2213;49.720;7.296;2023-07-13T00:37:10;16.60;99.90
4399;DHT22;2213;49.720;7.296;2023-07-13T00:39:41;16.50;99.90
4399;DHT22;2213;49.720;7.296;2023-07-13T00:42:11;16.50;99.90
4399;DHT22;2213;49.720;7.296;2023-07-13T00:44:40;16.50;99.90
4399;DHT22;2213;49.720;7.296;2023-07-13T00:47:09;16.50;99.90
4399;DHT22;2213;49.720;7.296;2023-07-13T00:49:42;16.40;99.90
4399;DHT22;2213;49.720;7.296;2023-07-13T00:52:13;16.30;99.90
4399;DHT22;2213;49.720;7.296;2023-07-13T00:54:45;16.20;99.90
4399;DHT22;2213;49.720;7.296;2023-07-13T00:57:18;16.20;99.90
4399;DHT22;2213;49.720;7.296;2023-07-13T00:59:55;16.20;99.90
4399;DHT22;2213;49.720;7.296;2023-07-13T01:02:29;16.10;99.90
4399;DHT22;2213;49.720;7.296;2023-07-13T01:05:00;16.10;99.90
4399;DHT22;2213;49.720;7.296;2023-07-13T01:07:30;16.10;99.90
4399;DHT22;2213;49.720;7.296;2023-07-13T01:10:00;16.00;99.90
4399;DHT22;2213;49.720;7.296;2023-07-13T01:12:30;16.00;99.90
4399;DHT22;2213;49.720;7.296;2023-07-13T01:15:01;16.00;99.90
4399;DHT22;2213;49.720;7.296;2023-07-13T01:17:34;16.00;99.90
4399;DHT22;2213;49.720;7.296;2023-07-13T01:20:07;15.90;99.90
4399;DHT22;2213;49.720;7.296;2023-07-13T01:22:38;15.90;99.90
4399;DHT22;2213;49.720;7.296;2023-07-13T01:25:09;15.90;99.90
4399;DHT22;2213;49.720;7.296;2023-07-13T01:27:39;15.90;99.90
4399;DHT22;2213;49.720;7.296;2023-07-13T01:30:12;15.80;99.90
4399;DHT22;2213;49.720;7.296;2023-07-13T01:32:43;15.80;99.90
4399;DHT22;2213;49.720;7.296;2023-07-13T01:35:14;15.70;99.90
4399;DHT22;2213;49.720;7.296;2023-07-13T01:37:46;15.70;99.90
4399;DHT22;2213;49.720;7.296;2023-07-13T01:40:17;15.70;99.90
4399;DHT22;2213;49.720;7.296;2023-07-13T01:42:47;15.60;99.90
4399;DHT22;2213;49.720;7.296;2023-07-13T01:45:18;15.60;99.90
4399;DHT22;2213;49.720;7.296;2023-07-13T01:47:48;15.50;99.90
4399;DHT22;2213;49.720;7.296;2023-07-13T01:50:18;15.50;99.90
4399;DHT22;2213;49.720;7.296;2023-07-13T01:52:48;15.50;99.90
4399;DHT22;2213;49.720;7.296;2023-07-13T01:55:19;15.40;99.90
4399;DHT22;2213;49.720;7.296;2023-07-13T01:57:49;15.40;99.90
4399;DHT22;2213;49.720;7.296;2023-07-13T02:00:19;15.30;99.90
4399;DHT22;2213;49.720;7.296;2023-07-13T02:02:49;15.40;99.90
4399;DHT22;2213;49.720;7.296;2023-07-13T02:05:20;15.30;99.90
4399;DHT22;2213;49.720;7.296;2023-07-13T02:07:51;15.30;99.90
4399;DHT22;2213;49.720;7.296;2023-07-13T02:10:22;15.30;99.90
4399;DHT22;2213;49.720;7.296;2023-07-13T02:12:53;15.30;99.90
4399;DHT22;2213;49.720;7.296;2023-07-13T02:15:23;15.20;99.90
4399;DHT22;2213;49.720;7.296;2023-07-13T02:17:53;15.20;99.90
4399;DHT22;2213;49.720;7.296;2023-07-13T02:20:25;15.20;99.90
4399;DHT22;2213;49.720;7.296;2023-07-13T02:22:56;15.20;99.90
4399;DHT22;2213;49.720;7.296;2023-07-13T02:25:27;15.20;99.90
4399;DHT22;2213;49.720;7.296;2023-07-13T02:27:56;15.20;99.90
4399;DHT22;2213;49.720;7.296;2023-07-13T02:30:26;15.20;99.90
4399;DHT22;2213;49.720;7.296;2023-07-13T02:32:57;15.20;99.90
4399;DHT22;2213;49.720;7.296;2023-07-13T02:35:28;15.10;99.90
4399;DHT22;2213;49.720;7.296;2023-07-13T02:38:00;15.10;99.90
4399;DHT22;2213;49.720;7.296;2023-07-13T02:40:31;15.10;99.90
4399;DHT22;2213;49.720;7.296;2023-07-13T02:43:03;15.10;99.90
4399;DHT22;2213;49.720;7.296;2023-07-13T02:45:32;15.10;99.90
4399;DHT22;2213;49.720;7.296;2023-07-13T02:48:02;15.20;99.90
4399;DHT22;2213;49.720;7.296;2023-07-13T02:50:32;15.20;99.90
4399;DHT22;2213;49.720;7.296;2023-07-13T02:53:03;15.20;99.90
4399;DHT22;2213;49.720;7.296;2023-07-13T02:55:33;15.20;99.90
4399;DHT22;2213;49.720;7.296;2023-07-13T02:58:03;15.30;99.90
4399;DHT22;2213;49.720;7.296;2023-07-13T03:00:37;15.30;99.90
4399;DHT22;2213;49.720;7.296;2023-07-13T03:03:08;15.30;99.90
4399;DHT22;2213;49.720;7.296;2023-07-13T03:05:40;15.40;99.90
4399;DHT22;2213;49.720;7.296;2023-07-13T03:08:14;15.30;99.90
4399;DHT22;2213;49.720;7.296;2023-07-13T03:10:45;15.40;99.90
4399;DHT22;2213;49.720;7.296;2023-07-13T03:13:16;15.40;99.90
4399;DHT22;2213;49.720;7.296;2023-07-13T03:15:48;15.40;99.90
4399;DHT22;2213;49.720;7.296;2023-07-13T03:18:18;15.40;99.90
4399;DHT22;2213;49.720;7.296;2023-07-13T03:20:50;15.50;99.90
4399;DHT22;2213;49.720;7.296;2023-07-13T03:23:22;15.50;99.90
4399;DHT22;2213;49.720;7.296;2023-07-13T03:26:02;15.50;99.90
4399;DHT22;2213;49.720;7.296;2023-07-13T03:28:33;15.60;99.90
4399;DHT22;2213;49.720;7.296;2023-07-13T03:31:04;15.60;99.90
4399;DHT22;2213;49.720;7.296;2023-07-13T03:33:35;15.60;99.90
4399;DHT22;2213;49.720;7.296;2023-07-13T03:36:07;15.60;99.90
4399;DHT22;2213;49.720;7.296;2023-07-13T03:38:45;15.60;99.90
4399;DHT22;2213;49.720;7.296;2023-07-13T03:41:16;15.70;99.90
4399;DHT22;2213;49.720;7.296;2023-07-13T03:43:46;15.60;99.90
4399;DHT22;2213;49.720;7.296;2023-07-13T03:46:17;15.60;99.90
4399;DHT22;2213;49.720;7.296;2023-07-13T03:48:47;15.70;99.90
4399;DHT22;2213;49.720;7.296;2023-07-13T03:51:18;15.70;99.90
4399;DHT22;2213;49.720;7.296;2023-07-13T03:53:48;15.70;99.90
4399;DHT22;2213;49.720;7.296;2023-07-13T03:56:20;15.70;99.90
4399;DHT22;2213;49.720;7.296;2023-07-13T03:58:50;15.70;99.90
4399;DHT22;2213;49.720;7.296;2023-07-13T04:01:21;15.70;99.90
4399;DHT22;2213;49.720;7.296;2023-07-13T04:03:53;15.70;99.90
4399;DHT22;2213;49.720;7.296;2023-07-13T04:06:26;15.70;99.90
4399;DHT22;2213;49.720;7.296;2023-07-13T04:09:00;15.70;99.90
4399;DHT22;2213;49.720;7.296;2023-07-13T04:11:33;15.80;99.90
4399;DHT22;2213;49.720;7.296;2023-07-13T04:14:05;15.70;99.90
4399;DHT22;2213;49.720;7.296;2023-07-13T04:16:36;15.70;99.90
4399;DHT22;2213;49.720;7.296;2023-07-13T04:19:08;15.70;99.90
4399;DHT22;2213;49.720;7.296;2023-07-13T04:21:38;15.70;99.90
4399;DHT22;2213;49.720;7.296;2023-07-13T04:24:09;15.70;99.90
4399;DHT22;2213;49.720;7.296;2023-07-13T04:26:40;15.70;99.90
4399;DHT22;2213;49.720;7.296;2023-07-13T04:29:11;15.70;99.90
4399;DHT22;2213;49.720;7.296;2023-07-13T04:31:40;15.70;99.90
4399;DHT22;2213;49.720;7.296;2023-07-13T04:34:10;15.70;99.90
4399;DHT22;2213;49.720;7.296;2023-07-13T04:36:39;15.70;99.90
4399;DHT22;2213;49.720;7.296;2023-07-13T04:39:11;15.70;99.90
4399;DHT22;2213;49.720;7.296;2023-07-13T04:41:42;15.70;99.90
4399;DHT22;2213;49.720;7.296;2023-07-13T04:44:11;15.70;99.90
4399;DHT22;2213;49.720;7.296;2023-07-13T04:46:41;15.70;99.90
4399;DHT22;2213;49.720;7.296;2023-07-13T04:49:12;15.80;99.90
4399;DHT22;2213;49.720;7.296;2023-07-13T04:51:42;15.80;99.90
4399;DHT22;2213;49.720;7.296;2023-07-13T04:54:13;15.80;99.90
4399;DHT22;2213;49.720;7.296;2023-07-13T04:56:44;15.90;99.90
4399;DHT22;2213;49.720;7.296;2023-07-13T04:59:15;15.80;99.90
4399;DHT22;2213;49.720;7.296;2023-07-13T05:01:45;15.80;99.90
4399;DHT22;2213;49.720;7.296;2023-07-13T05:04:14;15.90;99.90
4399;DHT22;2213;49.720;7.296;2023-07-13T05:06:46;15.90;99.90
4399;DHT22;2213;49.720;7.296;2023-07-13T05:09:18;15.80;99.90
4399;DHT22;2213;49.720;7.296;2023-07-13T05:11:49;15.80;99.90
4399;DHT22;2213;49.720;7.296;2023-07-13T05:14:18;15.90;99.90
4399;DHT22;2213;49.720;7.296;2023-07-13T05:16:49;15.90;99.90
4399;DHT22;2213;49.720;7.296;2023-07-13T05:19:18;16.00;99.90
4399;DHT22;2213;49.720;7.296;2023-07-13T05:21:48;16.00;99.90
4399;DHT22;2213;49.720;7.296;2023-07-13T05:24:19;16.00;99.90
4399;DHT22;2213;49.720;7.296;2023-07-13T05:26:52;16.10;99.90
4399;DHT22;2213;49.720;7.296;2023-07-13T05:29:22;16.10;99.90
4399;DHT22;2213;49.720;7.296;2023-07-13T05:31:52;16.10;99.90
4399;DHT22;2213;49.720;7.296;2023-07-13T05:34:22;16.20;99.90
4399;DHT22;2213;49.720;7.296;2023-07-13T05:36:52;16.30;99.90
4399;DHT22;2213;49.720;7.296;2023-07-13T05:39:25;16.30;99.90
4399;DHT22;2213;49.720;7.296;2023-07-13T05:41:56;16.20;99.90
4399;DHT22;2213;49.720;7.296;2023-07-13T05:44:27;16.30;99.90
4399;DHT22;2213;49.720;7.296;2023-07-13T05:46:56;16.30;99.90
4399;DHT22;2213;49.720;7.296;2023-07-13T05:49:27;16.30;99.90
4399;DHT22;2213;49.720;7.296;2023-07-13T05:51:57;16.20;99.90
4399;DHT22;2213;49.720;7.296;2023-07-13T05:54:29;16.30;99.90
4399;DHT22;2213;49.720;7.296;2023-07-13T05:57:00;16.30;99.90
4399;DHT22;2213;49.720;7.296;2023-07-13T05:59:30;16.30;99.90
4399;DHT22;2213;49.720;7.296;2023-07-13T06:01:59;16.40;99.90
4399;DHT22;2213;49.720;7.296;2023-07-13T06:04:30;16.40;99.90
4399;DHT22;2213;49.720;7.296;2023-07-13T06:07:01;16.50;99.90
4399;DHT22;2213;49.720;7.296;2023-07-13T06:09:34;16.50;99.90
4399;DHT22;2213;49.720;7.296;2023-07-13T06:12:05;16.60;99.90
4399;DHT22;2213;49.720;7.296;2023-07-13T06:14:35;16.60;99.90
4399;DHT22;2213;49.720;7.296;2023-07-13T06:17:07;16.70;99.90
4399;DHT22;2213;49.720;7.296;2023-07-13T06:19:37;16.70;99.90
4399;DHT22;2213;49.720;7.296;2023-07-13T06:22:06;16.70;99.90
4399;DHT22;2213;49.720;7.296;2023-07-13T06:24:38;16.80;99.90
4399;DHT22;2213;49.720;7.296;2023-07-13T06:27:09;16.80;99.90
4399;DHT22;2213;49.720;7.296;2023-07-13T06:29:38;16.90;99.90
4399;DHT22;2213;49.720;7.296;2023-07-13T06:32:10;16.90;99.90
4399;DHT22;2213;49.720;7.296;2023-07-13T06:34:40;17.00;99.90
4399;DHT22;2213;49.720;7.296;2023-07-13T06:37:11;17.10;99.90
4399;DHT22;2213;49.720;7.296;2023-07-13T06:39:43;17.10;99.90
4399;DHT22;2213;49.720;7.296;2023-07-13T06:42:13;17.20;99.90
4399;DHT22;2213;49.720;7.296;2023-07-13T06:44:44;17.30;99.90
4399;DHT22;2213;49.720;7.296;2023-07-13T06:47:14;17.30;99.90
4399;DHT22;2213;49.720;7.296;2023-07-13T06:49:44;17.50;99.10
4399;DHT22;2213;49.720;7.296;2023-07-13T06:52:14;17.50;98.90
4399;DHT22;2213;49.720;7.296;2023-07-13T06:54:46;17.50;98.60
4399;DHT22;2213;49.720;7.296;2023-07-13T06:57:16;17.70;98.10
4399;DHT22;2213;49.720;7.296;2023-07-13T06:59:47;17.70;98.20
4399;DHT22;2213;49.720;7.296;2023-07-13T07:02:18;17.70;98.20
4399;DHT22;2213;49.720;7.296;2023-07-13T07:04:49;17.70;98.10
4399;DHT22;2213;49.720;7.296;2023-07-13T07:07:23;17.70;98.00
4399;DHT22;2213;49.720;7.296;2023-07-13T07:09:54;17.80;98.00
4399;DHT22;2213;49.720;7.296;2023-07-13T07:12:25;17.80;97.80
4399;DHT22;2213;49.720;7.296;2023-07-13T07:14:56;17.80;98.10
4399;DHT22;2213;49.720;7.296;2023-07-13T07:17:26;17.90;97.70
4399;DHT22;2213;49.720;7.296;2023-07-13T07:19:56;18.10;97.50
4399;DHT22;2213;49.720;7.296;2023-07-13T07:22:26;18.20;97.00
4399;DHT22;2213;49.720;7.296;2023-07-13T07:24:57;18.30;97.10
4399;DHT22;2213;49.720;7.296;2023-07-13T07:27:28;18.30;96.70
4399;DHT22;2213;49.720;7.296;2023-07-13T07:30:01;18.40;96.60
4399;DHT22;2213;49.720;7.296;2023-07-13T07:32:33;18.30;96.50
4399;DHT22;2213;49.720;7.296;2023-07-13T07:35:07;18.40;96.40
4399;DHT22;2213;49.720;7.296;2023-07-13T07:37:37;18.40;96.40
4399;DHT22;2213;49.720;7.296;2023-07-13T07:40:11;18.50;96.20
4399;DHT22;2213;49.720;7.296;2023-07-13T07:42:45;18.50;96.20
4399;DHT22;2213;49.720;7.296;2023-07-13T07:45:15;18.60;96.20
4399;DHT22;2213;49.720;7.296;2023-07-13T07:47:44;18.60;95.90
4399;DHT22;2213;49.720;7.296;2023-07-13T07:50:14;18.70;96.10
4399;DHT22;2213;49.720;7.296;2023-07-13T07:52:45;18.70;96.40
4399;DHT22;2213;49.720;7.296;2023-07-13T07:55:16;18.70;96.40
4399;DHT22;2213;49.720;7.296;2023-07-13T07:57:49;18.80;95.60
4399;DHT22;2213;49.720;7.296;2023-07-13T08:00:22;19.00;95.60
4399;DHT22;2213;49.720;7.296;2023-07-13T08:02:54;18.90;95.40
4399;DHT22;2213;49.720;7.296;2023-07-13T08:05:43;19.00;94.80
4399;DHT22;2213;49.720;7.296;2023-07-13T08:08:33;19.10;94.20
4399;DHT22;2213;49.720;7.296;2023-07-13T08:11:08;19.10;94.10
4399;DHT22;2213;49.720;7.296;2023-07-13T08:13:41;19.20;93.80
4399;DHT22;2213;49.720;7.296;2023-07-13T08:16:12;19.20;94.00
4399;DHT22;2213;49.720;7.296;2023-07-13T08:18:42;19.30;93.40
4399;DHT22;2213;49.720;7.296;2023-07-13T08:21:13;19.40;93.20
4399;DHT22;2213;49.720;7.296;2023-07-13T08:23:43;19.50;92.70
4399;DHT22;2213;49.720;7.296;2023-07-13T08:26:14;19.40;92.80
4399;DHT22;2213;49.720;7.296;2023-07-13T08:28:44;19.50;92.70
4399;DHT22;2213;49.720;7.296;2023-07-13T08:31:13;19.60;93.00
4399;DHT22;2213;49.720;7.296;2023-07-13T08:33:43;19.60;92.80
4399;DHT22;2213;49.720;7.296;2023-07-13T08:36:13;19.70;92.50
4399;DHT22;2213;49.720;7.296;2023-07-13T08:38:42;19.80;92.50
4399;DHT22;2213;49.720;7.296;2023-07-13T08:41:15;19.90;92.30
4399;DHT22;2213;49.720;7.296;2023-07-13T08:43:49;20.00;91.90
4399;DHT22;2213;49.720;7.296;2023-07-13T08:46:29;20.10;91.80
4399;DHT22;2213;49.720;7.296;2023-07-13T08:49:05;20.10;92.30
4399;DHT22;2213;49.720;7.296;2023-07-13T08:51:45;20.10;92.30
4399;DHT22;2213;49.720;7.296;2023-07-13T08:54:21;20.10;91.60
4399;DHT22;2213;49.720;7.296;2023-07-13T08:56:59;20.10;92.00
4399;DHT22;2213;49.720;7.296;2023-07-13T08:59:34;20.00;92.10
4399;DHT22;2213;49.720;7.296;2023-07-13T09:02:25;20.10;92.40
4399;DHT22;2213;49.720;7.296;2023-07-13T09:05:00;20.20;92.80
4399;DHT22;2213;49.720;7.296;2023-07-13T09:07:43;20.20;92.00
4399;DHT22;2213;49.720;7.296;2023-07-13T09:10:32;20.20;92.10
4399;DHT22;2213;49.720;7.296;2023-07-13T09:13:20;20.30;92.60
4399;DHT22;2213;49.720;7.296;2023-07-13T09:15:59;20.20;91.90
4399;DHT22;2213;49.720;7.296;2023-07-13T09:18:31;20.40;91.70
4399;DHT22;2213;49.720;7.296;2023-07-13T09:21:09;20.40;91.50
4399;DHT22;2213;49.720;7.296;2023-07-13T09:23:42;20.50;91.80
4399;DHT22;2213;49.720;7.296;2023-07-13T09:26:15;20.50;92.10
4399;DHT22;2213;49.720;7.296;2023-07-13T09:28:52;20.50;91.70
4399;DHT22;2213;49.720;7.296;2023-07-13T09:31:30;20.60;91.50
4399;DHT22;2213;49.720;7.296;2023-07-13T09:34:06;20.70;91.00
4399;DHT22;2213;49.720;7.296;2023-07-13T09:36:40;20.70;91.20
4399;DHT22;2213;49.720;7.296;2023-07-13T09:39:14;20.70;91.20
4399;DHT22;2213;49.720;7.296;2023-07-13T09:41:53;20.70;91.60
4399;DHT22;2213;49.720;7.296;2023-07-13T09:44:30;20.70;91.40
4399;DHT22;2213;49.720;7.296;2023-07-13T09:47:13;20.70;91.40
4399;DHT22;2213;49.720;7.296;2023-07-13T09:49:47;20.80;91.10
4399;DHT22;2213;49.720;7.296;2023-07-13T09:52:17;20.90;90.90
4399;DHT22;2213;49.720;7.296;2023-07-13T09:54:49;20.80;91.00
4399;DHT22;2213;49.720;7.296;2023-07-13T09:57:27;20.80;90.90
4399;DHT22;2213;49.720;7.296;2023-07-13T10:00:25;20.80;91.20
4399;DHT22;2213;49.720;7.296;2023-07-13T10:03:00;20.90;91.50
4399;DHT22;2213;49.720;7.296;2023-07-13T10:05:39;21.00;91.40
4399;DHT22;2213;49.720;7.296;2023-07-13T10:08:24;21.00;90.90
4399;DHT22;2213;49.720;7.296;2023-07-13T10:11:00;21.20;90.80
4399;DHT22;2213;49.720;7.296;2023-07-13T10:13:42;21.20;90.10
4399;DHT22;2213;49.720;7.296;2023-07-13T10:16:15;21.10;90.40
4399;DHT22;2213;49.720;7.296;2023-07-13T10:18:48;21.10;90.70
4399;DHT22;2213;49.720;7.296;2023-07-13T10:21:23;21.20;90.30
4399;DHT22;2213;49.720;7.296;2023-07-13T10:24:06;21.20;90.30
4399;DHT22;2213;49.720;7.296;2023-07-13T10:26:49;21.20;91.10
4399;DHT22;2213;49.720;7.296;2023-07-13T10:29:25;21.20;91.00
4399;DHT22;2213;49.720;7.296;2023-07-13T10:31:58;21.20;91.50
4399;DHT22;2213;49.720;7.296;2023-07-13T10:34:29;21.20;91.10
4399;DHT22;2213;49.720;7.296;2023-07-13T10:37:01;21.30;91.30
4399;DHT22;2213;49.720;7.296;2023-07-13T10:39:33;21.30;91.10
4399;DHT22;2213;49.720;7.296;2023-07-13T10:42:08;21.30;90.90
4399;DHT22;2213;49.720;7.296;2023-07-13T10:44:45;21.50;90.00
4399;DHT22;2213;49.720;7.296;2023-07-13T10:47:17;21.30;90.40
4399;DHT22;2213;49.720;7.296;2023-07-13T10:49:50;21.40;90.10
4399;DHT22;2213;49.720;7.296;2023-07-13T10:52:42;21.50;90.40
4399;DHT22;2213;49.720;7.296;2023-07-13T10:55:39;21.50;90.20
4399;DHT22;2213;49.720;7.296;2023-07-13T10:58:29;21.60;90.30
4399;DHT22;2213;49.720;7.296;2023-07-13T11:01:08;21.50;90.60
4399;DHT22;2213;49.720;7.296;2023-07-13T11:03:50;21.70;90.20
4399;DHT22;2213;49.720;7.296;2023-07-13T11:06:36;21.60;90.20
4399;DHT22;2213;49.720;7.296;2023-07-13T11:09:35;21.60;89.40
4399;DHT22;2213;49.720;7.296;2023-07-13T11:12:10;21.60;88.90
4399;DHT22;2213;49.720;7.296;2023-07-13T11:15:05;21.70;90.10
4399;DHT22;2213;49.720;7.296;2023-07-13T11:18:11;21.80;88.30
4399;DHT22;2213;49.720;7.296;2023-07-13T11:20:51;21.90;89.30
4399;DHT22;2213;49.720;7.296;2023-07-13T11:23:30;21.90;89.00
4399;DHT22;2213;49.720;7.296;2023-07-13T11:26:02;21.90;90.00
4399;DHT22;2213;49.720;7.296;2023-07-13T11:28:34;22.00;88.90
4399;DHT22;2213;49.720;7.296;2023-07-13T11:31:15;22.00;89.50
4399;DHT22;2213;49.720;7.296;2023-07-13T11:33:58;22.20;90.00
4399;DHT22;2213;49.720;7.296;2023-07-13T11:36:39;22.20;89.40
4399;DHT22;2213;49.720;7.296;2023-07-13T11:39:18;22.30;88.10
4399;DHT22;2213;49.720;7.296;2023-07-13T11:41:53;22.20;88.80
4399;DHT22;2213;49.720;7.296;2023-07-13T11:44:28;22.20;87.50
4399;DHT22;2213;49.720;7.296;2023-07-13T11:47:00;22.20;87.40
4399;DHT22;2213;49.720;7.296;2023-07-13T11:49:43;22.30;88.20
4399;DHT22;2213;49.720;7.296;2023-07-13T11:52:17;22.30;85.90
4399;DHT22;2213;49.720;7.296;2023-07-13T11:54:52;22.20;86.90
4399;DHT22;2213;49.720;7.296;2023-07-13T11:57:28;22.10;86.60
4399;DHT22;2213;49.720;7.296;2023-07-13T12:00:09;22.20;87.60
4399;DHT22;2213;49.720;7.296;2023-07-13T12:02:46;22.30;86.50
4399;DHT22;2213;49.720;7.296;2023-07-13T12:05:20;22.10;85.40
4399;DHT22;2213;49.720;7.296;2023-07-13T12:07:52;22.20;85.40
4399;DHT22;2213;49.720;7.296;2023-07-13T12:10:25;22.20;85.70
4399;DHT22;2213;49.720;7.296;2023-07-13T12:12:58;22.30;85.50
4399;DHT22;2213;49.720;7.296;2023-07-13T12:15:36;22.40;87.00
4399;DHT22;2213;49.720;7.296;2023-07-13T12:18:13;22.40;85.80
4399;DHT22;2213;49.720;7.296;2023-07-13T12:20:45;22.30;86.20
4399;DHT22;2213;49.720;7.296;2023-07-13T12:23:23;22.40;86.30
4399;DHT22;2213;49.720;7.296;2023-07-13T12:25:56;22.50;86.80
4399;DHT22;2213;49.720;7.296;2023-07-13T12:28:34;22.70;84.90
4399;DHT22;2213;49.720;7.296;2023-07-13T12:31:06;22.50;86.10
4399;DHT22;2213;49.720;7.296;2023-07-13T12:33:56;22.50;85.80
4399;DHT22;2213;49.720;7.296;2023-07-13T12:36:34;22.60;86.60
4399;DHT22;2213;49.720;7.296;2023-07-13T12:39:15;22.70;85.00
4399;DHT22;2213;49.720;7.296;2023-07-13T12:41:47;22.60;85.50
4399;DHT22;2213;49.720;7.296;2023-07-13T12:44:21;22.70;85.50
4399;DHT22;2213;49.720;7.296;2023-07-13T12:46:59;22.70;84.20
4399;DHT22;2213;49.720;7.296;2023-07-13T12:49:34;22.80;85.10
4399;DHT22;2213;49.720;7.296;2023-07-13T12:52:14;22.80;84.40
4399;DHT22;2213;49.720;7.296;2023-07-13T12:54:54;22.80;84.90
4399;DHT22;2213;49.720;7.296;2023-07-13T12:57:38;22.90;83.70
4399;DHT22;2213;49.720;7.296;2023-07-13T13:00:22;23.00;84.00
4399;DHT22;2213;49.720;7.296;2023-07-13T13:02:53;22.90;84.00
4399;DHT22;2213;49.720;7.296;2023-07-13T13:05:45;22.90;83.20
4399;DHT22;2213;49.720;7.296;2023-07-13T13:08:14;22.80;83.40
4399;DHT22;2213;49.720;7.296;2023-07-13T13:10:46;22.80;83.70
4399;DHT22;2213;49.720;7.296;2023-07-13T13:13:17;22.90;83.70
4399;DHT22;2213;49.720;7.296;2023-07-13T13:15:46;22.90;84.00
4399;DHT22;2213;49.720;7.296;2023-07-13T13:18:17;22.90;84.70
4399;DHT22;2213;49.720;7.296;2023-07-13T13:20:48;22.90;83.60
4399;DHT22;2213;49.720;7.296;2023-07-13T13:23:19;23.00;84.40
4399;DHT22;2213;49.720;7.296;2023-07-13T13:25:51;22.80;84.60
4399;DHT22;2213;49.720;7.296;2023-07-13T13:28:20;22.90;83.50
4399;DHT22;2213;49.720;7.296;2023-07-13T13:30:50;23.00;82.90
4399;DHT22;2213;49.720;7.296;2023-07-13T13:33:20;22.90;83.60
4399;DHT22;2213;49.720;7.296;2023-07-13T13:35:50;22.80;82.90
4399;DHT22;2213;49.720;7.296;2023-07-13T13:38:22;22.90;83.10
4399;DHT22;2213;49.720;7.296;2023-07-13T13:40:57;22.90;83.10
4399;DHT22;2213;49.720;7.296;2023-07-13T13:43:27;22.80;83.20
4399;DHT22;2213;49.720;7.296;2023-07-13T13:45:57;23.00;83.70
4399;DHT22;2213;49.720;7.296;2023-07-13T13:48:33;23.00;83.70
4399;DHT22;2213;49.720;7.296;2023-07-13T13:51:13;23.00;83.30
4399;DHT22;2213;49.720;7.296;2023-07-13T13:53:45;23.00;83.40
4399;DHT22;2213;49.720;7.296;2023-07-13T13:56:18;22.90;83.10
4399;DHT22;2213;49.720;7.296;2023-07-13T13:58:48;22.90;84.20
4399;DHT22;2213;49.720;7.296;2023-07-13T14:01:20;23.00;85.00
4399;DHT22;2213;49.720;7.296;2023-07-13T14:03:52;23.10;84.10
4399;DHT22;2213;49.720;7.296;2023-07-13T14:06:22;23.00;83.80
4399;DHT22;2213;49.720;7.296;2023-07-13T14:08:51;23.20;83.30
4399;DHT22;2213;49.720;7.296;2023-07-13T14:11:24;23.10;81.50
4399;DHT22;2213;49.720;7.296;2023-07-13T14:13:56;23.20;81.90
4399;DHT22;2213;49.720;7.296;2023-07-13T14:16:29;23.20;81.80
4399;DHT22;2213;49.720;7.296;2023-07-13T14:19:01;23.30;81.90
4399;DHT22;2213;49.720;7.296;2023-07-13T14:21:31;23.20;81.60
4399;DHT22;2213;49.720;7.296;2023-07-13T14:24:00;23.30;81.80
4399;DHT22;2213;49.720;7.296;2023-07-13T14:26:36;23.10;82.10
4399;DHT22;2213;49.720;7.296;2023-07-13T14:29:13;23.30;82.20
4399;DHT22;2213;49.720;7.296;2023-07-13T14:31:48;23.20;82.60
4399;DHT22;2213;49.720;7.296;2023-07-13T14:34:19;23.10;82.20
4399;DHT22;2213;49.720;7.296;2023-07-13T14:36:49;23.00;81.80
4399;DHT22;2213;49.720;7.296;2023-07-13T14:39:22;23.10;81.80
4399;DHT22;2213;49.720;7.296;2023-07-13T14:41:55;23.10;81.90
4399;DHT22;2213;49.720;7.296;2023-07-13T14:44:27;22.90;81.60
4399;DHT22;2213;49.720;7.296;2023-07-13T14:47:01;22.90;81.80
4399;DHT22;2213;49.720;7.296;2023-07-13T14:49:37;22.90;80.90
4399;DHT22;2213;49.720;7.296;2023-07-13T14:52:12;23.00;82.20
4399;DHT22;2213;49.720;7.296;2023-07-13T14:54:42;23.20;83.20
4399;DHT22;2213;49.720;7.296;2023-07-13T14:57:18;23.40;82.00
4399;DHT22;2213;49.720;7.296;2023-07-13T14:59:48;23.50;82.40
4399;DHT22;2213;49.720;7.296;2023-07-13T15:02:29;23.60;81.80
4399;DHT22;2213;49.720;7.296;2023-07-13T15:05:01;23.70;83.00
4399;DHT22;2213;49.720;7.296;2023-07-13T15:07:33;23.80;84.50
4399;DHT22;2213;49.720;7.296;2023-07-13T15:10:11;24.00;80.90
4399;DHT22;2213;49.720;7.296;2023-07-13T15:12:43;24.10;78.70
4399;DHT22;2213;49.720;7.296;2023-07-13T15:15:13;24.20;79.20
4399;DHT22;2213;49.720;7.296;2023-07-13T15:17:43;24.20;77.00
4399;DHT22;2213;49.720;7.296;2023-07-13T15:20:19;24.20;77.50
4399;DHT22;2213;49.720;7.296;2023-07-13T15:22:52;24.30;77.30
4399;DHT22;2213;49.720;7.296;2023-07-13T15:25:24;24.50;77.40
4399;DHT22;2213;49.720;7.296;2023-07-13T15:27:57;24.60;77.50
4399;DHT22;2213;49.720;7.296;2023-07-13T15:30:33;24.60;77.50
4399;DHT22;2213;49.720;7.296;2023-07-13T15:33:12;24.50;76.60
4399;DHT22;2213;49.720;7.296;2023-07-13T15:35:45;24.50;76.70
4399;DHT22;2213;49.720;7.296;2023-07-13T15:38:18;24.30;76.40
4399;DHT22;2213;49.720;7.296;2023-07-13T15:40:49;24.30;76.60
4399;DHT22;2213;49.720;7.296;2023-07-13T15:43:21;24.30;78.00
4399;DHT22;2213;49.720;7.296;2023-07-13T15:45:51;24.40;77.30
4399;DHT22;2213;49.720;7.296;2023-07-13T15:48:24;24.40;77.00
4399;DHT22;2213;49.720;7.296;2023-07-13T15:50:56;24.40;77.10
4399;DHT22;2213;49.720;7.296;2023-07-13T15:53:30;24.30;77.40
4399;DHT22;2213;49.720;7.296;2023-07-13T15:56:03;24.40;77.80
4399;DHT22;2213;49.720;7.296;2023-07-13T15:58:48;24.30;78.50
4399;DHT22;2213;49.720;7.296;2023-07-13T16:01:18;24.50;78.80
4399;DHT22;2213;49.720;7.296;2023-07-13T16:03:49;24.50;76.40
4399;DHT22;2213;49.720;7.296;2023-07-13T16:06:22;24.50;76.80
4399;DHT22;2213;49.720;7.296;2023-07-13T16:08:58;24.30;75.40
4399;DHT22;2213;49.720;7.296;2023-07-13T16:11:32;24.40;75.80
4399;DHT22;2213;49.720;7.296;2023-07-13T16:14:05;24.20;75.60
4399;DHT22;2213;49.720;7.296;2023-07-13T16:16:35;24.20;75.90
4399;DHT22;2213;49.720;7.296;2023-07-13T16:19:04;24.00;75.70
4399;DHT22;2213;49.720;7.296;2023-07-13T16:21:39;23.90;76.40
4399;DHT22;2213;49.720;7.296;2023-07-13T16:24:16;24.00;75.90
4399;DHT22;2213;49.720;7.296;2023-07-13T16:26:49;24.10;76.20
4399;DHT22;2213;49.720;7.296;2023-07-13T16:29:22;24.10;77.20
4399;DHT22;2213;49.720;7.296;2023-07-13T16:31:57;24.30;75.40
4399;DHT22;2213;49.720;7.296;2023-07-13T16:34:29;24.30;75.70
4399;DHT22;2213;49.720;7.296;2023-07-13T16:37:00;24.20;75.80
4399;DHT22;2213;49.720;7.296;2023-07-13T16:39:32;24.30;76.50
4399;DHT22;2213;49.720;7.296;2023-07-13T16:42:04;24.10;76.40